createdAt,value
2024-05-09T00:00:29.703Z,44.83
2024-05-09T00:01:21.142Z,44.85
2024-05-09T00:02:20.029Z,44.83
2024-05-09T00:03:20.052Z,44.84
2024-05-09T00:04:20.077Z,44.84
2024-05-09T00:05:20.076Z,44.84
2024-05-09T00:06:20.002Z,44.81
2024-05-09T00:07:19.971Z,44.81
2024-05-09T00:08:19.998Z,44.82
2024-05-09T00:09:19.987Z,44.83
2024-05-09T00:10:25.585Z,44.81
2024-05-09T00:11:21.333Z,44.82
2024-05-09T00:12:20.133Z,44.82
2024-05-09T00:13:20.048Z,44.81
2024-05-09T00:14:20.101Z,44.81
2024-05-09T00:15:20.071Z,44.82
2024-05-09T00:16:20.054Z,44.82
2024-05-09T00:17:20.136Z,44.82
2024-05-09T00:18:20.238Z,44.80
2024-05-09T00:19:20.278Z,44.83
2024-05-09T00:21:20.223Z,44.77
2024-05-09T00:22:20.288Z,44.81
2024-05-09T00:23:20.444Z,44.78
2024-05-09T00:24:20.464Z,44.80
2024-05-09T00:25:20.515Z,44.77
2024-05-09T00:26:20.618Z,44.77
2024-05-09T00:27:20.688Z,44.78
2024-05-09T00:28:20.713Z,44.79
2024-05-09T00:29:21.091Z,44.76
2024-05-09T00:30:27.824Z,44.81
2024-05-09T00:31:21.915Z,44.78
2024-05-09T00:32:21.264Z,44.78
2024-05-09T00:33:21.314Z,44.77
2024-05-09T00:34:20.953Z,44.76
2024-05-09T00:35:20.899Z,44.75
2024-05-09T00:36:20.951Z,44.75
2024-05-09T00:37:20.906Z,44.77
2024-05-09T00:38:21.102Z,44.73
2024-05-09T00:39:20.947Z,44.75
2024-05-09T00:40:27.299Z,44.72
2024-05-09T00:41:21.988Z,44.74
2024-05-09T00:42:20.999Z,44.75
2024-05-09T00:43:20.970Z,44.74
2024-05-09T00:44:21.026Z,44.76
2024-05-09T00:45:21.009Z,44.75
2024-05-09T00:46:20.948Z,44.74
2024-05-09T00:47:21.232Z,44.72
2024-05-09T00:48:21.704Z,44.73
2024-05-09T00:49:21.277Z,44.71
2024-05-09T00:50:29.431Z,44.75
2024-05-09T00:51:22.049Z,44.74
2024-05-09T00:52:21.050Z,44.70
2024-05-09T00:53:21.153Z,44.72
2024-05-09T00:54:21.033Z,44.73
2024-05-09T00:55:21.056Z,44.71
2024-05-09T00:56:21.075Z,44.72
2024-05-09T00:57:21.072Z,44.72
2024-05-09T00:58:21.015Z,44.70
2024-05-09T00:59:21.095Z,44.70
2024-05-09T01:00:27.320Z,44.71
2024-05-09T01:01:22.159Z,44.71
2024-05-09T01:02:21.183Z,44.71
2024-05-09T01:03:21.618Z,44.69
2024-05-09T01:04:21.151Z,44.71
2024-05-09T01:05:21.217Z,44.69
2024-05-09T01:06:21.163Z,44.69
2024-05-09T01:07:21.142Z,44.72
2024-05-09T01:08:21.354Z,44.69
2024-05-09T01:09:21.126Z,44.68
2024-05-09T01:10:27.742Z,44.70
2024-05-09T01:11:22.317Z,44.70
2024-05-09T01:12:21.384Z,44.69
2024-05-09T01:13:21.192Z,44.69
2024-05-09T01:14:21.290Z,44.68
2024-05-09T01:15:21.191Z,44.69
2024-05-09T01:16:21.188Z,44.67
2024-05-09T01:17:21.269Z,44.69
2024-05-09T01:18:21.402Z,44.66
2024-05-09T01:19:21.468Z,44.67
2024-05-09T01:21:21.377Z,44.67
2024-05-09T01:22:21.422Z,44.66
2024-05-09T01:23:21.493Z,44.64
2024-05-09T01:24:21.531Z,44.65
2024-05-09T01:25:21.580Z,44.68
2024-05-09T01:26:21.749Z,44.66
2024-05-09T01:27:21.705Z,44.64
2024-05-09T01:28:21.783Z,44.65
2024-05-09T01:29:21.877Z,44.64
2024-05-09T01:30:31.191Z,44.65
2024-05-09T01:31:22.935Z,44.65
2024-05-09T01:32:22.286Z,44.65
2024-05-09T01:33:22.134Z,44.65
2024-05-09T01:34:22.096Z,44.67
2024-05-09T01:35:22.009Z,44.63
2024-05-09T01:36:21.923Z,44.65
2024-05-09T01:37:21.902Z,44.63
2024-05-09T01:38:22.028Z,44.65
2024-05-09T01:39:21.939Z,44.64
2024-05-09T01:40:28.516Z,44.64
2024-05-09T01:41:23.013Z,44.65
2024-05-09T01:42:22.000Z,44.66
2024-05-09T01:43:21.975Z,44.61
2024-05-09T01:44:21.972Z,44.65
2024-05-09T01:45:22.044Z,44.62
2024-05-09T01:46:22.029Z,44.65
2024-05-09T01:47:22.286Z,44.63
2024-05-09T01:48:22.071Z,44.63
2024-05-09T01:49:22.141Z,44.61
2024-05-09T01:50:33.252Z,44.61
2024-05-09T01:51:23.032Z,44.62
2024-05-09T01:52:22.016Z,44.64
2024-05-09T01:53:22.054Z,44.62
2024-05-09T01:54:22.039Z,44.63
2024-05-09T01:55:22.029Z,44.61
2024-05-09T01:56:22.055Z,44.63
2024-05-09T01:57:22.018Z,44.61
2024-05-09T01:58:22.034Z,44.63
2024-05-09T01:59:22.052Z,44.64
2024-05-09T02:00:30.637Z,44.61
2024-05-09T02:01:23.101Z,44.61
2024-05-09T02:02:22.179Z,44.61
2024-05-09T02:03:22.208Z,44.65
2024-05-09T02:04:22.304Z,44.60
2024-05-09T02:05:22.257Z,44.58
2024-05-09T02:06:22.077Z,44.60
2024-05-09T02:07:22.110Z,44.58
2024-05-09T02:08:22.495Z,44.59
2024-05-09T02:09:22.172Z,44.57
2024-05-09T02:10:26.422Z,44.61
2024-05-09T02:11:23.245Z,44.61
2024-05-09T02:12:22.289Z,44.58
2024-05-09T02:13:22.176Z,44.55
2024-05-09T02:14:22.233Z,44.62
2024-05-09T02:15:22.226Z,44.58
2024-05-09T02:16:22.159Z,44.58
2024-05-09T02:17:22.407Z,44.56
2024-05-09T02:18:22.422Z,44.58
2024-05-09T02:19:22.588Z,44.58
2024-05-09T02:20:29.807Z,44.57
2024-05-09T02:21:23.323Z,44.58
2024-05-09T02:22:22.334Z,44.57
2024-05-09T02:23:22.355Z,44.56
2024-05-09T02:24:22.306Z,44.57
2024-05-09T02:25:22.302Z,44.55
2024-05-09T02:26:22.380Z,44.55
2024-05-09T02:27:22.287Z,44.55
2024-05-09T02:28:22.323Z,44.56
2024-05-09T02:29:22.455Z,44.53
2024-05-09T02:30:26.389Z,44.56
2024-05-09T02:31:23.429Z,44.52
2024-05-09T02:32:22.528Z,44.55
2024-05-09T02:33:22.664Z,44.56
2024-05-09T02:34:22.693Z,44.54
2024-05-09T02:35:22.446Z,44.53
2024-05-09T02:36:22.444Z,44.54
2024-05-09T02:37:22.457Z,44.54
2024-05-09T02:38:22.468Z,44.52
2024-05-09T02:39:22.519Z,44.54
2024-05-09T02:41:22.601Z,44.54
2024-05-09T02:42:22.555Z,44.55
2024-05-09T02:43:22.540Z,44.56
2024-05-09T02:44:22.700Z,44.53
2024-05-09T02:45:22.539Z,44.55
2024-05-09T02:46:22.813Z,44.50
2024-05-09T02:47:22.738Z,44.55
2024-05-09T02:48:22.631Z,44.53
2024-05-09T02:49:22.769Z,44.55
2024-05-09T02:51:22.558Z,44.52
2024-05-09T02:52:22.583Z,44.52
2024-05-09T02:53:22.685Z,44.54
2024-05-09T02:54:22.554Z,44.52
2024-05-09T02:55:22.617Z,44.50
2024-05-09T02:56:22.602Z,44.51
2024-05-09T02:57:22.576Z,44.52
2024-05-09T02:58:22.548Z,44.51
2024-05-09T02:59:22.773Z,44.51
2024-05-09T03:00:26.681Z,44.49
2024-05-09T03:01:23.670Z,44.51
2024-05-09T03:02:22.615Z,44.48
2024-05-09T03:03:22.940Z,44.48
2024-05-09T03:04:22.630Z,44.48
2024-05-09T03:05:22.705Z,44.50
2024-05-09T03:06:22.583Z,44.47
2024-05-09T03:07:22.610Z,44.50
2024-05-09T03:08:22.675Z,44.47
2024-05-09T03:09:22.592Z,44.47
2024-05-09T03:10:28.297Z,44.48
2024-05-09T03:11:23.684Z,44.49
2024-05-09T03:12:22.712Z,44.48
2024-05-09T03:13:22.628Z,44.50
2024-05-09T03:14:22.728Z,44.48
2024-05-09T03:15:22.706Z,44.50
2024-05-09T03:16:22.649Z,44.51
2024-05-09T03:17:22.717Z,44.49
2024-05-09T03:18:22.771Z,44.50
2024-05-09T03:19:22.835Z,44.49
2024-05-09T03:20:27.381Z,44.49
2024-05-09T03:21:23.686Z,44.49
2024-05-09T03:22:22.663Z,44.47
2024-05-09T03:23:22.729Z,44.46
2024-05-09T03:24:22.674Z,44.47
2024-05-09T03:25:22.653Z,44.46
2024-05-09T03:26:22.691Z,44.46
2024-05-09T03:27:22.664Z,44.48
2024-05-09T03:28:22.658Z,44.48
2024-05-09T03:29:22.718Z,44.46
2024-05-09T03:30:30.755Z,44.45
2024-05-09T03:31:23.674Z,44.49
2024-05-09T03:32:22.737Z,44.48
2024-05-09T03:33:23.229Z,44.46
2024-05-09T03:34:22.701Z,44.45
2024-05-09T03:35:22.905Z,44.47
2024-05-09T03:36:22.694Z,44.48
2024-05-09T03:37:22.667Z,44.47
2024-05-09T03:38:22.747Z,44.46
2024-05-09T03:39:22.695Z,44.46
2024-05-09T03:40:26.467Z,44.48
2024-05-09T03:41:23.795Z,44.50
2024-05-09T03:42:22.697Z,44.46
2024-05-09T03:43:22.679Z,44.46
2024-05-09T03:44:22.797Z,44.47
2024-05-09T03:45:22.668Z,44.45
2024-05-09T03:46:22.676Z,44.45
2024-05-09T03:47:22.885Z,44.44
2024-05-09T03:48:22.819Z,44.44
2024-05-09T03:49:22.849Z,44.46
2024-05-09T03:50:29.715Z,44.46
2024-05-09T03:51:23.714Z,44.47
2024-05-09T03:52:22.678Z,44.46
2024-05-09T03:53:22.856Z,44.45
2024-05-09T03:54:22.724Z,44.48
2024-05-09T03:55:22.713Z,44.46
2024-05-09T03:56:22.756Z,44.45
2024-05-09T03:57:22.740Z,44.43
2024-05-09T03:58:22.737Z,44.45
2024-05-09T03:59:22.744Z,44.46
2024-05-09T04:00:30.919Z,44.42
2024-05-09T04:01:23.797Z,44.43
2024-05-09T04:02:22.812Z,44.44
2024-05-09T04:03:22.968Z,44.43
2024-05-09T04:04:22.765Z,44.43
2024-05-09T04:05:22.775Z,44.43
2024-05-09T04:06:22.723Z,44.43
2024-05-09T04:07:22.758Z,44.44
2024-05-09T04:08:22.787Z,44.45
2024-05-09T04:09:22.736Z,44.42
2024-05-09T04:10:30.280Z,44.44
2024-05-09T04:11:23.816Z,44.44
2024-05-09T04:12:22.828Z,44.42
2024-05-09T04:13:22.766Z,44.42
2024-05-09T04:14:22.887Z,44.41
2024-05-09T04:15:22.763Z,44.40
2024-05-09T04:16:22.763Z,44.41
2024-05-09T04:17:22.905Z,44.40
2024-05-09T04:18:22.838Z,44.38
2024-05-09T04:19:22.953Z,44.41
2024-05-09T04:21:22.782Z,44.41
2024-05-09T04:22:22.783Z,44.38
2024-05-09T04:23:22.830Z,44.38
2024-05-09T04:24:22.772Z,44.40
2024-05-09T04:25:22.776Z,44.40
2024-05-09T04:26:22.844Z,44.41
2024-05-09T04:27:22.771Z,44.40
2024-05-09T04:28:22.777Z,44.39
2024-05-09T04:29:22.845Z,44.40
2024-05-09T04:30:33.676Z,44.39
2024-05-09T04:31:23.768Z,44.39
2024-05-09T04:32:22.932Z,44.42
2024-05-09T04:33:23.043Z,44.37
2024-05-09T04:34:22.933Z,44.40
2024-05-09T04:35:22.803Z,44.40
2024-05-09T04:36:22.793Z,44.36
2024-05-09T04:37:22.803Z,44.38
2024-05-09T04:38:22.843Z,44.38
2024-05-09T04:39:22.825Z,44.36
2024-05-09T04:40:34.250Z,44.42
2024-05-09T04:41:31.094Z,44.43
2024-05-09T04:42:30.088Z,44.41
2024-05-09T04:43:30.062Z,44.42
2024-05-09T04:44:30.132Z,44.38
2024-05-09T04:45:30.073Z,44.38
2024-05-09T04:46:30.083Z,44.36
2024-05-09T04:47:30.235Z,44.37
2024-05-09T04:48:30.185Z,44.36
2024-05-09T04:49:30.157Z,44.34
2024-05-09T04:50:36.398Z,44.37
2024-05-09T04:51:31.101Z,44.37
2024-05-09T04:52:30.096Z,44.34
2024-05-09T04:53:30.142Z,44.37
2024-05-09T04:54:36.001Z,44.32
2024-05-09T04:55:31.139Z,44.36
2024-05-09T04:56:30.219Z,44.37
2024-05-09T04:57:30.094Z,44.33
2024-05-09T04:58:30.097Z,44.34
2024-05-09T04:59:30.208Z,44.31
2024-05-09T05:00:35.681Z,44.34
2024-05-09T05:01:31.173Z,44.33
2024-05-09T05:02:30.158Z,44.33
2024-05-09T05:03:30.422Z,44.32
2024-05-09T05:04:30.237Z,44.35
2024-05-09T05:05:30.229Z,44.30
2024-05-09T05:06:30.150Z,44.35
2024-05-09T05:07:30.108Z,44.33
2024-05-09T05:08:30.198Z,44.31
2024-05-09T05:09:30.160Z,44.32
2024-05-09T05:10:35.732Z,44.31
2024-05-09T05:11:31.271Z,44.31
2024-05-09T05:12:30.230Z,44.32
2024-05-09T05:13:30.143Z,44.30
2024-05-09T05:14:30.254Z,44.31
2024-05-09T05:15:30.125Z,44.30
2024-05-09T05:16:30.147Z,44.31
2024-05-09T05:17:30.353Z,44.29
2024-05-09T05:18:30.293Z,44.26
2024-05-09T05:19:30.269Z,44.27
2024-05-09T05:20:33.640Z,44.30
2024-05-09T05:21:30.297Z,44.30
2024-05-09T05:22:30.136Z,44.31
2024-05-09T05:23:30.269Z,44.26
2024-05-09T05:24:30.181Z,44.28
2024-05-09T05:25:30.256Z,44.27
2024-05-09T05:26:30.219Z,44.25
2024-05-09T05:27:30.155Z,44.25
2024-05-09T05:28:30.168Z,44.23
2024-05-09T05:29:30.163Z,44.23
2024-05-09T05:30:34.509Z,44.23
2024-05-09T05:31:31.172Z,44.23
2024-05-09T05:32:30.326Z,44.24
2024-05-09T05:33:30.369Z,44.25
2024-05-09T05:34:30.183Z,44.23
2024-05-09T05:35:30.352Z,44.21
2024-05-09T05:36:30.193Z,44.23
2024-05-09T05:37:30.164Z,44.22
2024-05-09T05:38:30.219Z,44.20
2024-05-09T05:39:30.178Z,44.21
2024-05-09T05:40:36.261Z,44.19
2024-05-09T05:41:31.289Z,44.18
2024-05-09T05:42:30.153Z,44.18
2024-05-09T05:43:30.165Z,44.17
2024-05-09T05:44:30.216Z,44.16
2024-05-09T05:45:30.290Z,44.14
2024-05-09T05:46:30.157Z,44.14
2024-05-09T05:47:30.335Z,44.13
2024-05-09T05:48:30.241Z,44.10
2024-05-09T05:49:30.238Z,44.13
2024-05-09T05:50:35.804Z,44.12
2024-05-09T05:51:31.185Z,44.13
2024-05-09T05:52:30.217Z,44.10
2024-05-09T05:53:30.291Z,44.09
2024-05-09T05:54:30.184Z,44.09
2024-05-09T05:55:30.227Z,44.07
2024-05-09T05:56:30.336Z,44.06
2024-05-09T05:57:30.187Z,44.06
2024-05-09T05:58:30.195Z,44.00
2024-05-09T05:59:30.221Z,44.01
2024-05-09T06:00:37.693Z,43.96
2024-05-09T06:01:31.271Z,43.96
2024-05-09T06:02:30.266Z,43.92
2024-05-09T06:03:30.316Z,43.94
2024-05-09T06:04:30.255Z,43.92
2024-05-09T06:05:30.226Z,43.89
2024-05-09T06:06:30.197Z,43.90
2024-05-09T06:07:30.209Z,43.88
2024-05-09T06:08:30.674Z,43.89
2024-05-09T06:09:30.237Z,43.90
2024-05-09T06:10:37.687Z,43.93
2024-05-09T06:11:31.442Z,43.91
2024-05-09T06:12:30.350Z,43.89
2024-05-09T06:13:30.358Z,43.92
2024-05-09T06:14:30.445Z,43.90
2024-05-09T06:15:30.317Z,43.93
2024-05-09T06:16:30.400Z,43.93
2024-05-09T06:17:30.494Z,43.93
2024-05-09T06:18:30.536Z,43.94
2024-05-09T06:19:30.721Z,43.94
2024-05-09T06:20:35.943Z,43.93
2024-05-09T06:21:31.419Z,43.93
2024-05-09T06:22:30.444Z,43.93
2024-05-09T06:23:30.507Z,43.93
2024-05-09T06:24:30.429Z,43.91
2024-05-09T06:25:30.435Z,43.92
2024-05-09T06:26:30.485Z,43.91
2024-05-09T06:27:30.468Z,43.90
2024-05-09T06:28:30.507Z,43.90
2024-05-09T06:29:30.475Z,43.89
2024-05-09T06:30:37.812Z,43.87
2024-05-09T06:31:31.478Z,43.85
2024-05-09T06:32:30.646Z,43.87
2024-05-09T06:33:30.727Z,43.88
2024-05-09T06:34:30.635Z,43.86
2024-05-09T06:35:30.679Z,43.86
2024-05-09T06:36:30.495Z,43.84
2024-05-09T06:37:30.756Z,43.82
2024-05-09T06:38:30.697Z,43.82
2024-05-09T06:39:30.489Z,43.79
2024-05-09T06:40:36.954Z,43.83
2024-05-09T06:41:31.596Z,43.80
2024-05-09T06:42:30.560Z,43.79
2024-05-09T06:43:30.586Z,43.78
2024-05-09T06:44:30.604Z,43.73
2024-05-09T06:45:30.540Z,43.73
2024-05-09T06:46:30.523Z,43.75
2024-05-09T06:47:30.647Z,43.72
2024-05-09T06:48:30.681Z,43.71
2024-05-09T06:49:30.658Z,43.67
2024-05-09T06:50:35.832Z,43.65
2024-05-09T06:51:31.615Z,43.68
2024-05-09T06:52:30.625Z,43.65
2024-05-09T06:53:30.648Z,43.61
2024-05-09T06:54:30.621Z,43.62
2024-05-09T06:55:30.599Z,43.60
2024-05-09T06:56:30.732Z,43.63
2024-05-09T06:57:30.622Z,43.64
2024-05-09T06:58:30.640Z,43.63
2024-05-09T06:59:30.830Z,43.64
2024-05-09T07:00:38.177Z,43.60
2024-05-09T07:01:31.818Z,43.62
2024-05-09T07:02:31.443Z,43.61
2024-05-09T07:03:30.798Z,43.62
2024-05-09T07:04:30.844Z,43.64
2024-05-09T07:05:30.775Z,43.63
2024-05-09T07:06:30.731Z,43.66
2024-05-09T07:07:30.718Z,43.66
2024-05-09T07:08:30.715Z,43.67
2024-05-09T07:09:30.804Z,43.69
2024-05-09T07:10:34.895Z,43.70
2024-05-09T07:11:31.900Z,43.70
2024-05-09T07:12:30.975Z,43.67
2024-05-09T07:13:30.835Z,43.68
2024-05-09T07:14:30.938Z,43.67
2024-05-09T07:15:30.847Z,43.66
2024-05-09T07:16:30.897Z,43.67
2024-05-09T07:17:30.985Z,43.65
2024-05-09T07:18:30.925Z,43.67
2024-05-09T07:19:30.979Z,43.66
2024-05-09T07:20:34.533Z,43.66
2024-05-09T07:21:30.915Z,43.65
2024-05-09T07:22:30.936Z,43.65
2024-05-09T07:23:31.040Z,43.64
2024-05-09T07:24:30.925Z,43.63
2024-05-09T07:25:31.126Z,43.62
2024-05-09T07:26:30.977Z,43.65
2024-05-09T07:27:30.933Z,43.65
2024-05-09T07:28:30.954Z,43.61
2024-05-09T07:29:30.957Z,43.62
2024-05-09T07:30:34.163Z,43.62
2024-05-09T07:31:30.950Z,43.62
2024-05-09T07:32:31.082Z,43.63
2024-05-09T07:33:31.056Z,43.61
2024-05-09T07:34:31.040Z,43.62
2024-05-09T07:35:31.357Z,43.61
2024-05-09T07:36:30.948Z,43.59
2024-05-09T07:37:30.950Z,43.62
2024-05-09T07:38:30.962Z,43.60
2024-05-09T07:39:30.948Z,43.59
2024-05-09T07:40:35.951Z,43.58
2024-05-09T07:41:32.027Z,43.57
2024-05-09T07:42:30.956Z,43.55
2024-05-09T07:43:30.978Z,43.56
2024-05-09T07:44:31.034Z,43.55
2024-05-09T07:45:47.449Z,43.57
2024-05-09T07:48:57.308Z,43.58
2024-05-09T07:50:01.463Z,43.58
2024-05-09T07:53:08.581Z,43.56
2024-05-09T07:53:33.032Z,43.56
2024-05-09T07:53:40.657Z,43.58
2024-05-09T07:54:32.172Z,43.59
2024-05-09T07:55:31.276Z,43.60
2024-05-09T07:56:31.747Z,43.56
2024-05-09T07:57:31.033Z,43.57
2024-05-09T07:58:31.299Z,43.60
2024-05-09T07:59:33.281Z,43.58
2024-05-09T08:00:32.110Z,43.58
2024-05-09T08:01:31.097Z,43.57
2024-05-09T08:02:31.208Z,43.56
2024-05-09T08:03:31.186Z,43.56
2024-05-09T08:04:31.138Z,43.56
2024-05-09T08:05:31.262Z,43.55
2024-05-09T08:06:31.077Z,43.53
2024-05-09T08:07:31.058Z,43.54
2024-05-09T08:08:31.027Z,43.54
2024-05-09T08:09:31.080Z,43.54
2024-05-09T08:10:31.119Z,43.55
2024-05-09T08:11:31.056Z,43.53
2024-05-09T08:12:31.046Z,43.51
2024-05-09T08:13:31.025Z,43.52
2024-05-09T08:14:31.057Z,43.50
2024-05-09T08:15:31.047Z,43.50
2024-05-09T08:16:31.039Z,43.49
2024-05-09T08:17:31.056Z,43.50
2024-05-09T08:18:31.420Z,43.51
2024-05-09T08:19:31.156Z,43.49
2024-05-09T08:20:35.081Z,43.47
2024-05-09T08:21:31.187Z,43.47
2024-05-09T08:22:31.290Z,43.45
2024-05-09T08:23:31.185Z,43.44
2024-05-09T08:24:31.191Z,43.42
2024-05-09T08:25:31.158Z,43.42
2024-05-09T08:26:31.194Z,43.39
2024-05-09T08:27:31.259Z,43.39
2024-05-09T08:28:31.195Z,43.36
2024-05-09T08:29:31.178Z,43.38
2024-05-09T08:30:36.540Z,43.37
2024-05-09T08:31:32.271Z,43.33
2024-05-09T08:32:31.297Z,43.33
2024-05-09T08:33:31.548Z,43.31
2024-05-09T08:34:31.273Z,43.28
2024-05-09T08:35:31.210Z,43.27
2024-05-09T08:36:31.210Z,43.25
2024-05-09T08:37:36.645Z,43.25
2024-05-09T08:38:32.193Z,43.26
2024-05-09T08:39:31.253Z,43.28
2024-05-09T08:40:35.259Z,43.29
2024-05-09T08:41:32.207Z,43.28
2024-05-09T08:42:31.232Z,43.26
2024-05-09T08:43:31.352Z,43.25
2024-05-09T08:44:31.236Z,43.24
2024-05-09T08:45:31.420Z,43.24
2024-05-09T08:46:31.282Z,43.25
2024-05-09T08:47:31.294Z,43.23
2024-05-09T08:48:31.400Z,43.24
2024-05-09T08:49:31.324Z,43.23
2024-05-09T08:50:37.932Z,43.21
2024-05-09T08:51:32.273Z,43.24
2024-05-09T08:52:31.214Z,43.23
2024-05-09T08:53:31.237Z,43.23
2024-05-09T08:54:31.290Z,43.19
2024-05-09T08:55:31.269Z,43.22
2024-05-09T08:56:31.236Z,43.20
2024-05-09T08:57:31.272Z,43.16
2024-05-09T08:58:31.239Z,43.18
2024-05-09T08:59:31.268Z,43.18
2024-05-09T09:00:36.610Z,43.16
2024-05-09T09:01:32.371Z,43.18
2024-05-09T09:02:31.426Z,43.16
2024-05-09T09:03:31.593Z,43.15
2024-05-09T09:04:31.309Z,43.13
2024-05-09T09:05:31.765Z,43.12
2024-05-09T09:06:31.332Z,43.12
2024-05-09T09:07:31.349Z,43.12
2024-05-09T09:08:31.259Z,43.06
2024-05-09T09:09:31.248Z,43.08
2024-05-09T09:10:32.727Z,43.07
2024-05-09T09:11:31.338Z,43.06
2024-05-09T09:12:31.397Z,43.07
2024-05-09T09:13:31.367Z,43.07
2024-05-09T09:14:31.449Z,43.05
2024-05-09T09:15:31.570Z,43.04
2024-05-09T09:16:31.622Z,43.05
2024-05-09T09:17:31.842Z,43.05
2024-05-09T09:18:31.973Z,43.05
2024-05-09T09:19:31.824Z,43.04
2024-05-09T09:20:36.328Z,43.05
2024-05-09T09:21:32.919Z,43.04
2024-05-09T09:22:31.805Z,43.06
2024-05-09T09:23:31.903Z,43.05
2024-05-09T09:24:31.827Z,43.04
2024-05-09T09:25:32.016Z,43.05
2024-05-09T09:26:31.811Z,43.07
2024-05-09T09:27:31.835Z,43.06
2024-05-09T09:28:31.813Z,43.06
2024-05-09T09:29:31.810Z,43.05
2024-05-09T09:30:36.895Z,43.05
2024-05-09T09:31:32.980Z,43.04
2024-05-09T09:32:31.877Z,43.03
2024-05-09T09:33:32.192Z,43.03
2024-05-09T09:34:32.081Z,43.03
2024-05-09T09:35:31.825Z,43.04
2024-05-09T09:36:31.834Z,43.01
2024-05-09T09:37:31.833Z,43.00
2024-05-09T09:38:31.817Z,42.98
2024-05-09T09:39:31.845Z,42.99
2024-05-09T09:40:34.044Z,43.00
2024-05-09T09:41:31.838Z,43.00
2024-05-09T09:42:31.840Z,43.00
2024-05-09T09:43:31.820Z,42.99
2024-05-09T09:44:32.204Z,42.98
2024-05-09T09:45:31.871Z,43.00
2024-05-09T09:46:31.926Z,43.00
2024-05-09T09:47:31.905Z,42.99
2024-05-09T09:48:31.998Z,43.00
2024-05-09T09:49:31.896Z,42.98
2024-05-09T09:50:34.703Z,42.96
2024-05-09T09:51:31.861Z,42.96
2024-05-09T09:52:31.889Z,42.97
2024-05-09T09:53:31.878Z,42.95
2024-05-09T09:54:31.882Z,42.98
2024-05-09T09:55:31.929Z,42.94
2024-05-09T09:56:31.938Z,42.95
2024-05-09T09:57:32.397Z,42.99
2024-05-09T09:58:31.962Z,42.96
2024-05-09T09:59:31.859Z,42.97
2024-05-09T10:00:33.435Z,42.98
2024-05-09T10:01:31.931Z,42.96
2024-05-09T10:02:32.063Z,42.94
2024-05-09T10:03:31.977Z,42.95
2024-05-09T10:04:31.915Z,42.96
2024-05-09T10:05:32.058Z,42.93
2024-05-09T10:06:31.946Z,42.95
2024-05-09T10:07:31.978Z,42.94
2024-05-09T10:08:32.054Z,42.94
2024-05-09T10:09:32.130Z,42.95
2024-05-09T10:10:33.247Z,42.95
2024-05-09T10:11:34.876Z,42.94
2024-05-09T10:12:33.263Z,42.95
2024-05-09T10:13:32.239Z,42.96
2024-05-09T10:14:32.200Z,42.92
2024-05-09T10:15:32.218Z,42.95
2024-05-09T10:16:32.244Z,42.92
2024-05-09T10:17:32.360Z,42.91
2024-05-09T10:18:34.296Z,42.95
2024-05-09T10:19:32.278Z,42.93
2024-05-09T10:20:32.968Z,42.93
2024-05-09T10:21:32.254Z,42.91
2024-05-09T10:22:32.251Z,42.93
2024-05-09T10:23:32.449Z,42.91
2024-05-09T10:24:32.402Z,42.92
2024-05-09T10:25:32.421Z,42.92
2024-05-09T10:26:32.446Z,42.90
2024-05-09T10:27:32.509Z,42.89
2024-05-09T10:28:32.627Z,42.89
2024-05-09T10:29:32.587Z,42.91
2024-05-09T10:30:36.166Z,42.91
2024-05-09T10:31:32.703Z,42.91
2024-05-09T10:32:32.784Z,42.91
2024-05-09T10:33:32.761Z,42.91
2024-05-09T10:34:33.383Z,42.92
2024-05-09T10:35:32.639Z,42.92
2024-05-09T10:36:32.654Z,42.88
2024-05-09T10:37:32.743Z,42.89
2024-05-09T10:38:32.632Z,42.88
2024-05-09T10:39:32.697Z,42.88
2024-05-09T10:40:32.721Z,42.92
2024-05-09T10:41:32.635Z,42.87
2024-05-09T10:42:32.693Z,42.85
2024-05-09T10:43:32.619Z,42.87
2024-05-09T10:44:32.623Z,42.85
2024-05-09T10:45:32.770Z,42.86
2024-05-09T10:46:32.632Z,42.85
2024-05-09T10:47:32.778Z,42.86
2024-05-09T10:48:32.776Z,42.82
2024-05-09T10:49:32.821Z,42.84
2024-05-09T10:50:34.460Z,42.83
2024-05-09T10:51:32.701Z,42.82
2024-05-09T10:52:32.621Z,42.84
2024-05-09T10:53:32.645Z,42.81
2024-05-09T10:54:32.754Z,42.83
2024-05-09T10:55:32.686Z,42.82
2024-05-09T10:56:32.648Z,42.81
2024-05-09T10:57:32.705Z,42.81
2024-05-09T10:58:32.718Z,42.81
2024-05-09T10:59:32.750Z,42.80
2024-05-09T11:00:35.983Z,42.80
2024-05-09T11:01:32.916Z,42.80
2024-05-09T11:02:33.085Z,42.78
2024-05-09T11:03:33.023Z,42.79
2024-05-09T11:04:32.881Z,42.79
2024-05-09T11:05:33.008Z,42.79
2024-05-09T11:06:32.904Z,42.78
2024-05-09T11:07:32.874Z,42.79
2024-05-09T11:08:33.041Z,42.79
2024-05-09T11:09:32.875Z,42.76
2024-05-09T11:10:34.423Z,42.79
2024-05-09T11:11:32.882Z,42.78
2024-05-09T11:12:32.915Z,42.77
2024-05-09T11:13:32.842Z,42.77
2024-05-09T11:14:32.843Z,42.76
2024-05-09T11:15:32.862Z,42.75
2024-05-09T11:16:32.848Z,42.76
2024-05-09T11:17:32.941Z,42.76
2024-05-09T11:18:36.599Z,42.75
2024-05-09T11:19:33.960Z,42.76
2024-05-09T11:20:35.052Z,42.74
2024-05-09T11:21:33.119Z,42.74
2024-05-09T11:22:33.116Z,42.72
2024-05-09T11:23:33.149Z,42.75
2024-05-09T11:24:33.219Z,42.72
2024-05-09T11:25:33.253Z,42.75
2024-05-09T11:26:33.268Z,42.72
2024-05-09T11:27:33.367Z,42.73
2024-05-09T11:28:33.363Z,42.70
2024-05-09T11:29:33.408Z,42.70
2024-05-09T11:30:33.515Z,42.70
2024-05-09T11:31:33.662Z,42.69
2024-05-09T11:32:33.703Z,42.70
2024-05-09T11:33:33.705Z,42.69
2024-05-09T11:34:33.708Z,42.70
2024-05-09T11:35:33.677Z,42.67
2024-05-09T11:36:33.761Z,42.69
2024-05-09T11:37:36.807Z,42.69
2024-05-09T11:38:33.754Z,42.67
2024-05-09T11:39:33.815Z,42.70
2024-05-09T11:40:34.662Z,42.68
2024-05-09T11:41:33.761Z,42.67
2024-05-09T11:42:33.792Z,42.67
2024-05-09T11:43:33.920Z,42.68
2024-05-09T11:44:33.745Z,42.67
2024-05-09T11:45:33.804Z,42.68
2024-05-09T11:46:33.784Z,42.65
2024-05-09T11:47:33.904Z,42.67
2024-05-09T11:48:33.946Z,42.67
2024-05-09T11:49:33.951Z,42.68
2024-05-09T11:50:35.904Z,42.67
2024-05-09T11:51:33.994Z,42.66
2024-05-09T11:52:33.967Z,42.67
2024-05-09T11:53:33.994Z,42.65
2024-05-09T11:54:34.099Z,42.64
2024-05-09T11:55:34.141Z,42.63
2024-05-09T11:56:34.127Z,42.66
2024-05-09T11:57:34.248Z,42.62
2024-05-09T11:58:34.433Z,42.64
2024-05-09T11:59:34.271Z,42.63
2024-05-09T12:00:37.284Z,42.62
2024-05-09T12:01:34.403Z,42.62
2024-05-09T12:02:34.475Z,42.62
2024-05-09T12:03:34.490Z,42.64
2024-05-09T12:04:34.423Z,42.62
2024-05-09T12:05:34.780Z,42.62
2024-05-09T12:06:34.342Z,42.61
2024-05-09T12:07:34.337Z,42.61
2024-05-09T12:08:34.338Z,42.62
2024-05-09T12:09:34.383Z,42.62
2024-05-09T12:10:36.159Z,42.64
2024-05-09T12:11:34.481Z,42.66
2024-05-09T12:12:36.725Z,42.66
2024-05-09T12:13:34.759Z,42.69
2024-05-09T12:14:34.778Z,42.65
2024-05-09T12:15:34.847Z,42.67
2024-05-09T12:16:34.940Z,42.69
2024-05-09T12:17:35.065Z,42.69
2024-05-09T12:18:35.027Z,42.71
2024-05-09T12:19:35.109Z,42.68
2024-05-09T12:20:38.341Z,42.68
2024-05-09T12:21:35.078Z,42.69
2024-05-09T12:22:35.026Z,42.68
2024-05-09T12:23:35.037Z,42.71
2024-05-09T12:24:35.091Z,42.69
2024-05-09T12:25:35.058Z,42.68
2024-05-09T12:26:35.066Z,42.69
2024-05-09T12:27:35.116Z,42.64
2024-05-09T12:28:35.065Z,42.67
2024-05-09T12:29:38.240Z,42.68
2024-05-09T12:30:38.839Z,42.69
2024-05-09T12:31:36.117Z,42.73
2024-05-09T12:32:35.179Z,42.74
2024-05-09T12:33:35.140Z,42.72
2024-05-09T12:34:35.138Z,42.72
2024-05-09T12:35:35.042Z,42.73
2024-05-09T12:36:35.111Z,42.71
2024-05-09T12:37:35.094Z,42.72
2024-05-09T12:38:35.099Z,42.72
2024-05-09T12:39:35.107Z,42.73
2024-05-09T12:40:37.984Z,42.72
2024-05-09T12:41:35.068Z,42.75
2024-05-09T12:42:35.157Z,42.74
2024-05-09T12:43:35.122Z,42.73
2024-05-09T12:44:35.111Z,42.73
2024-05-09T12:45:35.140Z,42.71
2024-05-09T12:46:35.167Z,42.74
2024-05-09T12:47:35.147Z,42.72
2024-05-09T12:48:35.311Z,42.74
2024-05-09T12:49:35.295Z,42.72
2024-05-09T12:50:35.492Z,42.70
2024-05-09T12:51:35.159Z,42.72
2024-05-09T12:52:35.094Z,42.70
2024-05-09T12:53:35.118Z,42.71
2024-05-09T12:54:35.136Z,42.72
2024-05-09T12:55:43.931Z,42.71
2024-05-09T12:56:36.120Z,42.74
2024-05-09T12:57:35.161Z,42.73
2024-05-09T12:58:35.122Z,42.72
2024-05-09T12:59:35.116Z,42.73
2024-05-09T13:00:35.223Z,42.72